createdAt,value
2023-05-03T00:01:32.116Z,9.56
2023-05-03T00:06:39.386Z,9.46
2023-05-03T00:11:47.958Z,9.47
2023-05-03T00:16:54.638Z,9.45
2023-05-03T00:22:01.760Z,9.34
2023-05-03T00:27:10.222Z,9.06
2023-05-03T00:32:17.134Z,9.01
2023-05-03T00:37:24.552Z,8.92
2023-05-03T00:42:32.657Z,8.86
2023-05-03T00:47:40.262Z,8.74
2023-05-03T00:52:47.339Z,8.68
2023-05-03T00:57:55.798Z,8.45
2023-05-03T01:03:02.465Z,8.31
2023-05-03T01:08:17.241Z,8.06
2023-05-03T01:13:33.748Z,8.02
2023-05-03T01:18:44.496Z,8.00
2023-05-03T01:23:59.162Z,8.09
2023-05-03T01:29:08.471Z,8.09
2023-05-03T01:34:30.570Z,8.10
2023-05-03T01:39:46.117Z,7.98
2023-05-03T01:44:56.730Z,8.05
2023-05-03T01:50:03.717Z,7.90
2023-05-03T01:55:11.620Z,8.04
2023-05-03T02:00:20.262Z,8.15
2023-05-03T02:05:27.508Z,8.17
2023-05-03T02:10:35.015Z,8.22
2023-05-03T02:15:43.255Z,8.29
2023-05-03T02:20:50.049Z,8.28
2023-05-03T02:25:56.892Z,8.14
2023-05-03T02:31:07.403Z,8.07
2023-05-03T02:36:14.782Z,8.13
2023-05-03T02:41:24.045Z,8.21
2023-05-03T02:46:38.765Z,8.27
2023-05-03T02:51:56.331Z,8.31
2023-05-03T02:57:08.014Z,8.31
2023-05-03T03:02:16.352Z,8.30
2023-05-03T03:07:23.174Z,8.26
2023-05-03T03:12:33.974Z,8.22
2023-05-03T03:17:42.188Z,8.23
2023-05-03T03:22:50.620Z,8.12
2023-05-03T03:27:57.160Z,8.08
2023-05-03T03:33:07.096Z,8.07
2023-05-03T03:38:21.824Z,8.03
2023-05-03T03:43:36.596Z,8.04
2023-05-03T03:48:48.020Z,8.06
2023-05-03T03:53:54.888Z,8.09
2023-05-03T03:59:04.308Z,8.06
2023-05-03T04:04:12.448Z,8.14
2023-05-03T04:09:19.445Z,8.13
2023-05-03T04:14:26.143Z,8.27
2023-05-03T04:19:34.736Z,8.59
2023-05-03T04:24:46.264Z,8.98
2023-05-03T04:29:53.103Z,9.19
2023-05-03T04:35:02.541Z,9.27
2023-05-03T04:40:12.617Z,8.94
2023-05-03T04:45:23.790Z,8.77
2023-05-03T04:50:32.004Z,8.98
2023-05-03T04:55:38.851Z,9.15
2023-05-03T05:00:46.825Z,9.19
2023-05-03T05:06:02.982Z,9.19
2023-05-03T05:11:13.292Z,9.31
2023-05-03T05:16:20.016Z,9.35
2023-05-03T05:21:32.990Z,9.29
2023-05-03T05:26:40.304Z,9.25
2023-05-03T05:31:46.873Z,9.35
2023-05-03T05:36:55.189Z,9.44
2023-05-03T05:42:04.529Z,9.53
2023-05-03T05:47:12.517Z,9.50
2023-05-03T05:52:22.397Z,9.53
2023-05-03T05:57:29.647Z,9.63
2023-05-03T06:02:36.862Z,9.85
2023-05-03T06:07:45.735Z,9.87
2023-05-03T06:12:52.376Z,9.69
2023-05-03T06:18:03.197Z,9.78
2023-05-03T06:23:11.456Z,9.80
2023-05-03T06:28:18.002Z,9.92
2023-05-03T06:33:24.839Z,10.00
2023-05-03T06:38:33.835Z,10.10
2023-05-03T06:43:40.380Z,10.18
2023-05-03T06:48:47.047Z,10.30
2023-05-03T06:53:55.044Z,10.41
2023-05-03T06:59:01.852Z,10.36
2023-05-03T07:04:08.509Z,10.42
2023-05-03T07:09:16.672Z,10.42
2023-05-03T07:14:23.351Z,10.34
2023-05-03T07:19:30.468Z,10.29
2023-05-03T07:24:38.384Z,10.28
2023-05-03T07:29:45.444Z,10.43
2023-05-03T07:34:51.959Z,10.52
2023-05-03T07:40:00.662Z,10.58
2023-05-03T07:45:11.572Z,10.71
2023-05-03T07:50:18.982Z,10.75
2023-05-03T07:55:27.037Z,10.85
2023-05-03T08:00:33.823Z,10.78
2023-05-03T08:05:40.577Z,10.76
2023-05-03T08:10:48.782Z,10.96
2023-05-03T08:15:55.550Z,10.94
2023-05-03T08:21:03.826Z,10.89
2023-05-03T08:26:14.453Z,11.02
2023-05-03T08:31:21.108Z,11.08
2023-05-03T08:36:28.030Z,11.24
2023-05-03T08:41:36.597Z,11.32
2023-05-03T08:46:45.893Z,11.30
2023-05-03T08:51:53.587Z,11.43
2023-05-03T08:57:01.874Z,11.43
2023-05-03T09:02:11.681Z,11.33
2023-05-03T09:07:20.339Z,11.54
2023-05-03T09:12:42.313Z,11.60
2023-05-03T09:18:08.330Z,11.38
2023-05-03T09:23:15.442Z,11.68
2023-05-03T09:28:23.938Z,11.92
2023-05-03T09:33:31.980Z,11.87
2023-05-03T09:38:38.844Z,11.83
2023-05-03T09:43:57.156Z,11.76
2023-05-03T09:49:04.981Z,11.73
2023-05-03T09:54:13.412Z,11.88
2023-05-03T09:59:22.111Z,11.94
2023-05-03T10:04:30.990Z,12.06
2023-05-03T10:09:41.829Z,12.30
2023-05-03T10:14:55.286Z,12.32
2023-05-03T10:20:14.814Z,12.19
2023-05-03T10:25:21.845Z,12.30
2023-05-03T10:30:35.079Z,12.23
2023-05-03T10:35:43.713Z,12.10
2023-05-03T10:40:50.833Z,12.44
2023-05-03T10:46:00.858Z,12.78
2023-05-03T10:51:37.519Z,12.70
2023-05-03T10:56:56.408Z,12.78
2023-05-03T11:02:04.541Z,12.96
2023-05-03T11:07:11.334Z,13.05
2023-05-03T11:12:17.986Z,12.97
2023-05-03T11:17:26.751Z,13.08
2023-05-03T11:22:34.249Z,13.31
2023-05-03T11:27:44.496Z,13.61
2023-05-03T11:32:54.488Z,13.77
2023-05-03T11:38:00.975Z,14.01
2023-05-03T11:43:08.383Z,14.03
2023-05-03T11:48:16.772Z,13.87
2023-05-03T11:53:25.205Z,13.76
2023-05-03T11:58:32.538Z,13.70
2023-05-03T12:03:40.940Z,13.54
2023-05-03T12:08:47.653Z,13.54
2023-05-03T12:14:02.817Z,13.76
2023-05-03T12:19:11.456Z,13.95
2023-05-03T12:24:20.672Z,14.05
2023-05-03T12:29:29.497Z,14.18
2023-05-03T12:34:40.908Z,14.46
2023-05-03T12:39:58.537Z,14.64
2023-05-03T12:45:15.654Z,14.76
2023-05-03T12:50:24.993Z,14.87
2023-05-03T12:55:35.332Z,14.76
2023-05-03T13:01:06.994Z,14.87
2023-05-03T13:06:14.639Z,14.47
2023-05-03T13:11:22.081Z,14.52
2023-05-03T13:16:30.299Z,14.40
2023-05-03T13:21:38.261Z,14.26
2023-05-03T13:26:44.829Z,14.01
2023-05-03T13:31:51.562Z,14.04
2023-05-03T13:36:59.812Z,13.87
2023-05-03T13:42:06.828Z,14.00
2023-05-03T13:47:13.727Z,13.97
2023-05-03T13:52:21.717Z,14.07
2023-05-03T13:57:28.615Z,14.26
2023-05-03T14:02:35.330Z,14.34
2023-05-03T14:07:43.790Z,14.21
2023-05-03T14:12:50.696Z,14.17
2023-05-03T14:17:59.928Z,14.28
2023-05-03T14:23:10.318Z,14.23
2023-05-03T14:28:17.184Z,14.30
2023-05-03T14:33:23.725Z,14.42
2023-05-03T14:38:32.581Z,14.35
2023-05-03T14:43:40.057Z,14.51
2023-05-03T14:48:46.906Z,14.46
2023-05-03T14:53:55.587Z,14.45
2023-05-03T14:59:04.855Z,14.49
2023-05-03T15:04:13.966Z,14.43
2023-05-03T15:09:23.282Z,14.40
2023-05-03T15:14:30.367Z,14.38
2023-05-03T15:19:38.078Z,14.35
2023-05-03T15:24:47.006Z,14.22
2023-05-03T15:29:53.501Z,14.08
2023-05-03T15:35:00.336Z,14.07
2023-05-03T15:40:11.758Z,13.83
2023-05-03T15:45:19.423Z,13.63
2023-05-03T15:50:26.620Z,13.74
2023-05-03T15:55:34.821Z,13.68
2023-05-03T16:00:42.044Z,13.50
2023-05-03T16:05:48.915Z,13.43
2023-05-03T16:10:58.721Z,13.46
2023-05-03T16:16:06.187Z,13.47
2023-05-03T16:21:14.894Z,13.48
2023-05-03T16:26:23.231Z,13.41
2023-05-03T16:31:31.849Z,13.35
2023-05-03T16:36:43.257Z,13.33
2023-05-03T16:41:52.816Z,13.22
2023-05-03T16:47:03.218Z,13.17
2023-05-03T16:52:11.804Z,13.08
2023-05-03T16:57:20.593Z,12.96
2023-05-03T17:02:28.850Z,12.96
2023-05-03T17:07:38.393Z,12.90
2023-05-03T17:12:49.927Z,12.85
2023-05-03T17:17:56.918Z,12.71
2023-05-03T17:23:03.536Z,12.56
2023-05-03T17:28:11.589Z,12.42
2023-05-03T17:33:18.279Z,12.32
2023-05-03T17:38:25.606Z,12.17
2023-05-03T17:43:34.255Z,11.96
2023-05-03T17:48:43.877Z,11.80
2023-05-03T17:53:50.970Z,11.67
2023-05-03T17:58:59.553Z,11.51
2023-05-03T18:04:08.697Z,11.25
2023-05-03T18:09:15.841Z,11.11
2023-05-03T18:14:24.411Z,10.99
2023-05-03T18:19:31.741Z,10.59
2023-05-03T18:24:39.123Z,10.40
2023-05-03T18:29:49.833Z,10.24
2023-05-03T18:34:58.533Z,10.07
2023-05-03T18:40:06.688Z,9.87
2023-05-03T18:45:18.096Z,9.75
2023-05-03T18:50:26.444Z,9.65
2023-05-03T18:55:34.579Z,9.49
2023-05-03T19:00:46.960Z,9.11
2023-05-03T19:05:55.271Z,8.91
2023-05-03T19:11:11.033Z,8.84
2023-05-03T19:16:20.541Z,8.76
2023-05-03T19:21:29.679Z,8.65
2023-05-03T19:26:37.532Z,8.50
2023-05-03T19:31:48.664Z,8.38
2023-05-03T19:36:55.900Z,8.26
2023-05-03T19:42:04.877Z,8.12
2023-05-03T19:47:15.081Z,7.94
2023-05-03T19:52:22.848Z,7.82
2023-05-03T19:57:30.474Z,7.66
2023-05-03T20:02:40.408Z,7.51
2023-05-03T20:07:49.711Z,7.35
2023-05-03T20:12:57.122Z,7.15
2023-05-03T20:18:06.304Z,6.88
2023-05-03T20:23:13.965Z,6.71
2023-05-03T20:28:22.051Z,6.69
2023-05-03T20:33:31.212Z,6.60
2023-05-03T20:38:39.170Z,6.43
2023-05-03T20:43:45.992Z,6.30
2023-05-03T20:48:53.983Z,6.19
2023-05-03T20:54:00.844Z,6.20
2023-05-03T20:59:07.736Z,6.05
2023-05-03T21:04:18.033Z,6.03
2023-05-03T21:09:25.090Z,5.92
2023-05-03T21:14:31.969Z,5.70
2023-05-03T21:19:41.094Z,5.68
2023-05-03T21:24:48.381Z,5.47
2023-05-03T21:29:56.682Z,5.45
2023-05-03T21:35:05.163Z,5.34
2023-05-03T21:40:13.931Z,5.32
2023-05-03T21:45:20.813Z,5.26
2023-05-03T21:50:28.891Z,5.24
2023-05-03T21:55:36.537Z,5.15
2023-05-03T22:00:44.673Z,5.03
2023-05-03T22:05:53.057Z,4.89
2023-05-03T22:11:00.235Z,4.74
2023-05-03T22:16:08.758Z,4.61
2023-05-03T22:21:17.013Z,4.55
2023-05-03T22:26:24.676Z,4.49
2023-05-03T22:31:31.904Z,4.41
2023-05-03T22:36:43.015Z,4.27
2023-05-03T22:41:50.039Z,4.21
2023-05-03T22:46:58.298Z,4.13
2023-05-03T22:52:09.449Z,4.03
2023-05-03T22:57:16.172Z,4.04
2023-05-03T23:02:23.139Z,4.03
2023-05-03T23:07:32.321Z,3.84
2023-05-03T23:12:39.453Z,3.87
2023-05-03T23:17:46.941Z,3.88
2023-05-03T23:22:55.119Z,3.71
2023-05-03T23:28:05.959Z,3.74
2023-05-03T23:33:13.189Z,3.74
2023-05-03T23:38:21.897Z,3.67
2023-05-03T23:43:28.522Z,3.59
2023-05-03T23:48:35.307Z,3.52
2023-05-03T23:53:43.591Z,3.43
2023-05-03T23:58:50.000Z,3.38
